createdAt,value
2022-10-31T00:00:41.054Z,66.66
2022-10-31T00:03:13.547Z,67.01
2022-10-31T00:05:48.852Z,67.16
2022-10-31T00:08:21.390Z,67.41
2022-10-31T00:10:55.228Z,66.73
2022-10-31T00:13:27.920Z,67.06
2022-10-31T00:16:00.340Z,67.16
2022-10-31T00:18:33.037Z,67.32
2022-10-31T00:21:05.910Z,67.22
2022-10-31T00:23:38.442Z,67.13
2022-10-31T00:26:12.443Z,67.15
2022-10-31T00:28:45.334Z,67.19
2022-10-31T00:31:18.057Z,67.33
2022-10-31T00:33:50.748Z,67.21
2022-10-31T00:36:24.396Z,67.49
2022-10-31T00:38:57.004Z,67.47
2022-10-31T00:41:31.479Z,67.71
2022-10-31T00:44:03.983Z,67.34
2022-10-31T00:46:36.777Z,67.93
2022-10-31T00:49:09.300Z,67.97
2022-10-31T00:51:42.017Z,67.44
2022-10-31T00:54:14.692Z,67.75
2022-10-31T00:56:48.560Z,67.84
2022-10-31T00:59:21.106Z,67.45
2022-10-31T01:01:53.679Z,67.49
2022-10-31T01:04:27.175Z,68.12
2022-10-31T01:07:00.042Z,67.67
2022-10-31T01:09:32.601Z,67.76
2022-10-31T01:12:07.341Z,67.86
2022-10-31T01:14:43.344Z,67.46
2022-10-31T01:17:15.993Z,68.04
2022-10-31T01:19:48.513Z,67.65
2022-10-31T01:22:20.851Z,68.07
2022-10-31T01:24:53.257Z,67.80
2022-10-31T01:27:27.049Z,67.77
2022-10-31T01:29:59.643Z,67.98
2022-10-31T01:32:32.097Z,67.84
2022-10-31T01:35:05.332Z,68.01
2022-10-31T01:37:37.783Z,68.07
2022-10-31T01:40:11.465Z,68.06
2022-10-31T01:42:45.644Z,68.10
2022-10-31T01:45:19.615Z,67.76
2022-10-31T01:47:52.135Z,68.12
2022-10-31T01:50:31.323Z,68.16
2022-10-31T01:53:07.642Z,68.40
2022-10-31T01:55:42.624Z,68.03
2022-10-31T01:58:21.197Z,67.98
2022-10-31T02:01:01.849Z,67.86
2022-10-31T02:03:37.471Z,67.76
2022-10-31T02:06:14.894Z,68.16
2022-10-31T02:08:47.609Z,67.89
2022-10-31T02:11:20.893Z,68.07
2022-10-31T02:13:55.376Z,68.02
2022-10-31T02:16:48.860Z,67.25
2022-10-31T02:19:31.864Z,67.42
2022-10-31T02:22:12.988Z,67.72
2022-10-31T02:24:52.964Z,68.17
2022-10-31T02:27:58.155Z,68.25
2022-10-31T02:30:42.604Z,67.59
2022-10-31T02:33:24.437Z,68.28
2022-10-31T02:36:06.848Z,67.68
2022-10-31T02:38:52.055Z,67.85
2022-10-31T02:41:47.259Z,67.56
2022-10-31T02:44:28.507Z,67.71
2022-10-31T02:47:03.713Z,68.30
2022-10-31T02:49:47.512Z,68.18
2022-10-31T02:52:22.353Z,67.88
2022-10-31T02:54:55.170Z,67.93
2022-10-31T02:57:32.089Z,67.70
2022-10-31T03:00:09.546Z,68.30
2022-10-31T03:02:54.422Z,67.89
2022-10-31T03:05:53.973Z,68.01
2022-10-31T03:08:35.866Z,67.51
2022-10-31T03:11:10.875Z,67.71
2022-10-31T03:13:52.317Z,67.36
2022-10-31T03:16:33.539Z,67.38
2022-10-31T03:19:10.634Z,67.55
2022-10-31T03:21:47.480Z,67.80
2022-10-31T03:24:25.685Z,67.91
2022-10-31T03:27:00.947Z,67.56
2022-10-31T03:29:37.972Z,67.51
2022-10-31T03:32:16.508Z,68.02
2022-10-31T03:34:56.838Z,67.25
2022-10-31T03:37:33.494Z,67.74
2022-10-31T03:40:09.389Z,67.66
2022-10-31T03:42:45.580Z,67.29
2022-10-31T03:45:22.946Z,67.25
2022-10-31T03:47:57.022Z,68.09
2022-10-31T03:50:39.345Z,67.28
2022-10-31T03:53:17.978Z,67.54
2022-10-31T03:55:53.919Z,67.72
2022-10-31T03:58:30.964Z,67.15
2022-10-31T04:01:06.048Z,67.52
2022-10-31T04:03:39.942Z,67.65
2022-10-31T04:06:18.287Z,67.43
2022-10-31T04:08:55.944Z,67.45
2022-10-31T04:11:32.597Z,67.57
2022-10-31T04:14:37.854Z,67.32
2022-10-31T04:17:14.209Z,67.21
2022-10-31T04:19:48.443Z,67.92
2022-10-31T04:22:20.909Z,68.21
2022-10-31T04:24:54.752Z,67.69
2022-10-31T04:27:27.444Z,67.78
2022-10-31T04:30:00.771Z,68.02
2022-10-31T04:32:35.503Z,67.97
2022-10-31T04:35:08.481Z,68.28
2022-10-31T04:37:41.209Z,67.71
2022-10-31T04:40:15.210Z,68.57
2022-10-31T04:43:06.437Z,68.39
2022-10-31T04:45:39.136Z,68.26
2022-10-31T04:48:11.688Z,68.32
2022-10-31T04:50:46.140Z,68.32
2022-10-31T04:53:20.339Z,68.59
2022-10-31T04:56:12.740Z,69.19
2022-10-31T04:58:49.655Z,68.73
2022-10-31T05:01:23.560Z,69.10
2022-10-31T05:03:56.075Z,69.61
2022-10-31T05:06:29.402Z,69.50
2022-10-31T05:09:03.138Z,69.83
2022-10-31T05:11:38.026Z,69.84
2022-10-31T05:14:31.998Z,69.83
2022-10-31T05:17:23.089Z,69.77
2022-10-31T05:20:31.813Z,70.10
2022-10-31T05:23:23.260Z,69.94
2022-10-31T05:25:55.683Z,70.40
2022-10-31T05:28:29.770Z,70.31
2022-10-31T05:31:04.055Z,70.62
2022-10-31T05:33:37.359Z,70.70
2022-10-31T05:36:28.586Z,70.43
2022-10-31T05:39:06.195Z,70.31
2022-10-31T05:41:46.435Z,70.76
2022-10-31T05:44:27.675Z,70.92
2022-10-31T05:47:09.357Z,70.94
2022-10-31T05:49:44.847Z,71.21
2022-10-31T05:52:37.618Z,71.24
2022-10-31T05:55:22.832Z,70.75
2022-10-31T05:58:30.466Z,71.39
2022-10-31T06:01:12.196Z,71.10
2022-10-31T06:03:44.831Z,71.43
2022-10-31T06:06:21.451Z,71.41
2022-10-31T06:08:53.855Z,71.17
2022-10-31T06:11:28.823Z,70.64
2022-10-31T06:14:07.269Z,70.93
2022-10-31T06:17:01.987Z,71.91
2022-10-31T06:19:54.286Z,71.37
2022-10-31T06:22:28.381Z,71.06
2022-10-31T06:25:01.456Z,71.43
2022-10-31T06:27:37.755Z,71.72
2022-10-31T06:30:17.034Z,71.10
2022-10-31T06:32:52.966Z,71.69
2022-10-31T06:35:26.206Z,71.73
2022-10-31T06:37:59.403Z,71.71
2022-10-31T06:40:47.229Z,71.37
2022-10-31T06:43:27.720Z,71.07
2022-10-31T06:46:18.965Z,71.61
2022-10-31T06:49:08.504Z,71.39
2022-10-31T06:51:48.867Z,71.65
2022-10-31T06:54:22.508Z,71.10
2022-10-31T06:56:54.980Z,71.14
2022-10-31T06:59:27.634Z,71.27
2022-10-31T07:02:22.524Z,71.29
2022-10-31T07:04:57.360Z,71.49
2022-10-31T07:07:30.103Z,71.34
2022-10-31T07:10:02.636Z,71.66
2022-10-31T07:12:55.786Z,71.67
2022-10-31T07:15:30.179Z,71.67
2022-10-31T07:18:04.627Z,71.42
2022-10-31T07:20:38.835Z,71.57
2022-10-31T07:23:12.144Z,71.13
2022-10-31T07:25:45.165Z,71.60
2022-10-31T07:28:25.588Z,71.36
2022-10-31T07:30:59.169Z,71.49
2022-10-31T07:33:31.780Z,71.40
2022-10-31T07:36:37.779Z,71.38
2022-10-31T07:39:10.441Z,71.85
2022-10-31T07:41:45.605Z,71.59
2022-10-31T07:44:17.950Z,71.79
2022-10-31T07:47:28.833Z,71.96
2022-10-31T07:50:21.843Z,71.10
2022-10-31T07:53:16.143Z,70.94
2022-10-31T07:56:20.547Z,71.78
2022-10-31T07:58:52.930Z,71.72
2022-10-31T08:01:25.390Z,72.12
2022-10-31T08:04:30.661Z,72.15
2022-10-31T08:07:22.307Z,71.92
2022-10-31T08:10:08.413Z,71.28
2022-10-31T08:12:41.520Z,71.13
2022-10-31T08:15:14.759Z,71.51
2022-10-31T08:17:47.153Z,70.70
2022-10-31T08:20:20.316Z,70.65
2022-10-31T08:22:57.324Z,70.95
2022-10-31T08:25:35.538Z,70.93
2022-10-31T08:28:12.741Z,70.65
2022-10-31T08:30:48.460Z,71.85
2022-10-31T08:33:39.392Z,71.09
2022-10-31T08:36:49.788Z,71.10
2022-10-31T08:39:30.564Z,71.54
2022-10-31T08:42:06.125Z,71.61
2022-10-31T08:44:39.067Z,72.05
2022-10-31T08:47:11.547Z,71.84
2022-10-31T08:49:44.028Z,71.93
2022-10-31T08:52:17.133Z,70.85
2022-10-31T08:54:52.777Z,71.05
2022-10-31T08:57:46.986Z,71.50
2022-10-31T09:00:19.674Z,71.31
2022-10-31T09:03:14.702Z,71.41
2022-10-31T09:05:49.026Z,70.64
2022-10-31T09:08:21.629Z,70.62
2022-10-31T09:10:57.646Z,71.31
2022-10-31T09:13:53.000Z,71.45
2022-10-31T09:16:44.386Z,70.74
2022-10-31T09:19:23.472Z,71.16
2022-10-31T09:21:55.920Z,70.58
2022-10-31T09:24:28.432Z,71.11
2022-10-31T09:27:00.941Z,70.63
2022-10-31T09:29:34.783Z,71.34
2022-10-31T09:32:09.411Z,71.76
2022-10-31T09:34:46.689Z,71.20
2022-10-31T09:37:23.241Z,70.61
2022-10-31T09:39:57.392Z,71.08
2022-10-31T09:42:57.446Z,70.51
2022-10-31T09:45:40.387Z,71.56
2022-10-31T09:49:06.800Z,70.73
2022-10-31T09:52:00.366Z,70.94
2022-10-31T09:54:43.172Z,71.52
2022-10-31T09:57:20.456Z,70.38
2022-10-31T09:59:54.469Z,71.37
2022-10-31T10:02:37.255Z,71.49
2022-10-31T10:05:13.412Z,70.46
2022-10-31T10:07:56.468Z,70.65
2022-10-31T10:11:18.723Z,70.98
2022-10-31T10:14:17.720Z,70.85
2022-10-31T10:17:06.168Z,70.53
2022-10-31T10:20:02.895Z,70.35
2022-10-31T10:22:43.339Z,70.10
2022-10-31T10:25:21.144Z,70.78
2022-10-31T10:28:04.696Z,70.05
2022-10-31T10:30:42.869Z,70.02
2022-10-31T10:33:20.484Z,69.90
2022-10-31T10:35:59.709Z,70.66
2022-10-31T10:38:38.815Z,70.10
2022-10-31T10:41:16.119Z,70.16
2022-10-31T10:43:51.030Z,70.37
2022-10-31T10:46:49.701Z,70.91
2022-10-31T10:49:29.335Z,71.13
2022-10-31T10:55:14.937Z,70.28
2022-10-31T10:57:56.543Z,71.01
2022-10-31T11:00:32.860Z,70.48
2022-10-31T11:03:06.568Z,70.73
2022-10-31T11:05:44.222Z,70.72
2022-10-31T11:08:27.447Z,70.72
2022-10-31T11:11:03.641Z,70.99
2022-10-31T11:13:37.445Z,70.72
2022-10-31T11:16:12.862Z,70.19
2022-10-31T11:18:48.238Z,71.06
2022-10-31T11:21:23.061Z,70.70
2022-10-31T11:24:05.156Z,70.67
2022-10-31T11:26:39.154Z,71.20
2022-10-31T11:29:18.019Z,71.60
2022-10-31T11:31:53.391Z,70.46
2022-10-31T11:34:31.767Z,69.44
2022-10-31T11:37:11.096Z,68.45
2022-10-31T11:39:46.701Z,69.03
2022-10-31T11:42:19.079Z,68.75
2022-10-31T11:44:53.945Z,68.05
2022-10-31T11:47:29.679Z,68.00
2022-10-31T11:50:10.305Z,66.91
2022-10-31T11:52:42.896Z,67.38
2022-10-31T11:55:19.909Z,68.44
2022-10-31T11:57:55.293Z,67.20
2022-10-31T12:00:30.787Z,66.42
2022-10-31T12:03:15.209Z,67.04
2022-10-31T12:05:53.028Z,66.10
2022-10-31T12:08:30.126Z,66.52
2022-10-31T12:11:12.919Z,64.81
2022-10-31T12:14:03.493Z,65.83
2022-10-31T12:16:43.677Z,64.87
2022-10-31T12:19:26.414Z,64.93
2022-10-31T12:22:10.392Z,66.04
2022-10-31T12:25:07.541Z,65.05
2022-10-31T12:27:55.701Z,64.69
2022-10-31T12:30:39.026Z,64.68
2022-10-31T12:33:26.493Z,64.15
2022-10-31T12:36:15.540Z,64.22
2022-10-31T12:39:14.089Z,63.70
2022-10-31T12:41:51.319Z,63.61
2022-10-31T12:44:45.285Z,64.14
2022-10-31T12:47:44.514Z,63.39
2022-10-31T12:50:30.146Z,64.42
2022-10-31T12:53:17.333Z,63.36
2022-10-31T12:56:00.932Z,62.94
2022-10-31T12:58:38.083Z,63.50
2022-10-31T13:01:18.094Z,63.59
2022-10-31T13:03:57.183Z,63.94
2022-10-31T13:06:34.563Z,64.03
2022-10-31T13:09:11.413Z,62.81
2022-10-31T13:11:46.884Z,62.95
2022-10-31T13:14:27.937Z,62.37
2022-10-31T13:17:03.135Z,62.84
2022-10-31T13:19:39.351Z,63.87
2022-10-31T13:22:17.480Z,63.67
2022-10-31T13:24:56.931Z,63.63
2022-10-31T13:27:34.719Z,62.89
2022-10-31T13:30:16.260Z,63.02
2022-10-31T13:32:55.442Z,63.04
2022-10-31T13:35:33.094Z,62.25
2022-10-31T13:38:20.750Z,62.51
2022-10-31T13:41:00.379Z,63.50
2022-10-31T13:43:46.237Z,62.32
2022-10-31T13:46:25.600Z,61.76
2022-10-31T13:48:59.718Z,63.91
2022-10-31T13:51:33.535Z,64.24
2022-10-31T13:54:21.486Z,64.50
2022-10-31T13:56:54.511Z,65.50
2022-10-31T13:59:28.422Z,64.49
2022-10-31T14:02:03.256Z,64.26
2022-10-31T14:04:39.830Z,65.03
2022-10-31T14:07:15.132Z,64.34
2022-10-31T14:09:56.254Z,65.70
2022-10-31T14:12:37.120Z,64.71
2022-10-31T14:15:18.287Z,65.49
2022-10-31T14:17:55.414Z,65.17
2022-10-31T14:20:39.601Z,64.98
2022-10-31T14:23:48.333Z,65.70
2022-10-31T14:26:36.719Z,65.30
2022-10-31T14:29:27.582Z,65.76
2022-10-31T14:32:22.281Z,66.38
2022-10-31T14:34:56.968Z,66.25
2022-10-31T14:38:06.485Z,65.46
2022-10-31T14:40:51.338Z,66.17
2022-10-31T14:43:36.523Z,66.72
2022-10-31T14:46:16.515Z,66.01
2022-10-31T14:49:05.294Z,65.79
2022-10-31T14:51:41.142Z,66.56
2022-10-31T14:54:19.272Z,65.99
2022-10-31T14:56:55.278Z,65.41
2022-10-31T14:59:31.608Z,66.16
2022-10-31T15:02:13.453Z,65.71
2022-10-31T15:04:48.301Z,66.47
2022-10-31T15:07:25.123Z,66.53
2022-10-31T15:10:01.024Z,65.71
2022-10-31T15:12:39.646Z,65.58
2022-10-31T15:15:13.616Z,65.63
2022-10-31T15:17:54.018Z,65.79
2022-10-31T15:20:28.822Z,66.00
2022-10-31T15:23:01.587Z,65.13
2022-10-31T15:25:36.574Z,64.98
2022-10-31T15:28:15.564Z,65.40
2022-10-31T15:30:52.938Z,65.75
2022-10-31T15:33:27.948Z,66.14
2022-10-31T15:36:02.479Z,66.75
2022-10-31T15:38:34.913Z,65.99
2022-10-31T15:41:25.129Z,66.51
2022-10-31T15:44:03.318Z,66.18
2022-10-31T15:46:35.859Z,66.49
2022-10-31T15:49:28.711Z,66.22
2022-10-31T15:52:07.609Z,66.68
2022-10-31T15:54:49.482Z,65.88
2022-10-31T15:57:24.260Z,66.27
2022-10-31T15:59:56.880Z,66.19
2022-10-31T16:02:29.596Z,66.23
2022-10-31T16:05:03.294Z,66.50
2022-10-31T16:07:36.014Z,66.59
2022-10-31T16:10:27.863Z,65.45
2022-10-31T16:13:03.262Z,65.89
2022-10-31T16:15:36.790Z,66.90
2022-10-31T16:18:12.971Z,66.18
2022-10-31T16:20:51.117Z,66.13
2022-10-31T16:23:26.138Z,65.78
2022-10-31T16:25:58.972Z,66.56
2022-10-31T16:28:36.957Z,66.47
2022-10-31T16:31:15.376Z,66.46
2022-10-31T16:33:47.895Z,67.59
2022-10-31T16:36:36.471Z,66.66
2022-10-31T16:39:09.485Z,67.05
2022-10-31T16:41:43.360Z,66.73
2022-10-31T16:44:20.810Z,66.40
2022-10-31T16:47:11.190Z,66.93
2022-10-31T16:49:45.716Z,66.32
2022-10-31T16:52:23.060Z,66.75
2022-10-31T16:54:59.265Z,66.67
2022-10-31T16:57:33.489Z,67.00
2022-10-31T17:00:13.739Z,67.54
2022-10-31T17:02:51.977Z,66.41
2022-10-31T17:05:31.538Z,66.67
2022-10-31T17:08:05.460Z,67.04
2022-10-31T17:10:39.076Z,66.40
2022-10-31T17:13:23.206Z,66.63
2022-10-31T17:15:59.293Z,66.80
2022-10-31T17:18:31.895Z,67.29
2022-10-31T17:21:06.557Z,67.92
2022-10-31T17:23:40.797Z,67.71
2022-10-31T17:26:13.840Z,67.64
2022-10-31T17:28:46.903Z,67.55
2022-10-31T17:31:24.041Z,67.45
2022-10-31T17:34:02.304Z,66.54
2022-10-31T17:36:37.804Z,67.57
2022-10-31T17:39:11.131Z,68.87
2022-10-31T17:41:43.955Z,68.04
2022-10-31T17:44:16.779Z,68.11
2022-10-31T17:46:50.938Z,68.25
2022-10-31T17:49:25.334Z,67.99
2022-10-31T17:51:57.840Z,68.03
2022-10-31T17:54:30.240Z,68.71
2022-10-31T17:57:02.647Z,68.61
2022-10-31T17:59:35.184Z,67.52
2022-10-31T18:02:10.256Z,68.88
2022-10-31T18:04:42.783Z,68.85
2022-10-31T18:07:19.456Z,67.94
2022-10-31T18:09:51.946Z,68.28
2022-10-31T18:12:24.695Z,67.76
2022-10-31T18:14:57.197Z,67.64
2022-10-31T18:17:32.080Z,67.30
2022-10-31T18:20:06.554Z,67.96
2022-10-31T18:22:39.760Z,68.47
2022-10-31T18:25:12.440Z,68.65
2022-10-31T18:27:44.885Z,67.77
2022-10-31T18:30:18.881Z,68.05
2022-10-31T18:32:53.090Z,67.40
2022-10-31T18:35:25.592Z,67.75
2022-10-31T18:38:00.691Z,68.00
2022-10-31T18:40:36.459Z,67.38
2022-10-31T18:43:08.955Z,67.61
2022-10-31T18:45:46.928Z,68.24
2022-10-31T18:48:23.512Z,68.09
2022-10-31T18:50:58.190Z,67.73
2022-10-31T18:53:31.424Z,67.31
2022-10-31T18:56:08.070Z,68.13
2022-10-31T18:58:40.537Z,68.14
2022-10-31T19:01:14.147Z,68.27
2022-10-31T19:03:53.101Z,68.28
2022-10-31T19:06:26.406Z,68.62
2022-10-31T19:08:59.947Z,68.42
2022-10-31T19:11:33.657Z,68.38
2022-10-31T19:14:08.552Z,68.39
2022-10-31T19:16:41.595Z,69.23
2022-10-31T19:19:15.553Z,68.60
2022-10-31T19:21:48.298Z,69.05
2022-10-31T19:24:20.945Z,69.14
2022-10-31T19:26:53.429Z,69.06
2022-10-31T19:29:25.970Z,69.50
2022-10-31T19:31:58.477Z,68.81
2022-10-31T19:34:32.535Z,68.82
2022-10-31T19:37:05.070Z,69.94
2022-10-31T19:39:42.777Z,70.09
2022-10-31T19:42:16.577Z,69.36
2022-10-31T19:44:49.265Z,70.59
2022-10-31T19:47:21.848Z,70.14
2022-10-31T19:49:55.695Z,69.39
2022-10-31T19:52:28.197Z,69.53
2022-10-31T19:55:00.924Z,70.18
2022-10-31T19:58:00.374Z,70.32
2022-10-31T20:00:27.793Z,69.71
2022-10-31T20:03:00.660Z,69.22
2022-10-31T20:05:40.590Z,69.36
2022-10-31T20:08:15.632Z,69.21
2022-10-31T20:10:55.713Z,69.59
2022-10-31T20:13:28.930Z,69.59
2022-10-31T20:16:03.313Z,69.76
2022-10-31T20:18:36.634Z,69.34
2022-10-31T20:21:12.702Z,69.94
2022-10-31T20:23:46.531Z,69.61
2022-10-31T20:26:19.781Z,69.42
2022-10-31T20:28:52.755Z,69.29
2022-10-31T20:31:27.587Z,68.83
2022-10-31T20:34:00.575Z,70.19
2022-10-31T20:36:34.790Z,71.32
2022-10-31T20:39:07.120Z,70.44
2022-10-31T20:41:40.063Z,69.92
2022-10-31T20:44:12.564Z,69.21
2022-10-31T20:46:45.041Z,69.57
2022-10-31T20:49:17.970Z,69.53
2022-10-31T20:51:52.793Z,70.75
2022-10-31T20:54:25.441Z,70.46
2022-10-31T20:56:58.077Z,70.72
2022-10-31T20:59:30.645Z,70.89
2022-10-31T21:02:03.427Z,69.65
2022-10-31T21:04:35.977Z,70.54
2022-10-31T21:07:09.950Z,70.69
2022-10-31T21:09:42.345Z,71.01
2022-10-31T21:12:15.805Z,70.48
2022-10-31T21:14:48.245Z,70.15
2022-10-31T21:17:20.759Z,70.45
2022-10-31T21:19:53.263Z,71.07
2022-10-31T21:22:27.327Z,70.63
2022-10-31T21:25:00.146Z,70.32
2022-10-31T21:27:32.736Z,70.56
2022-10-31T21:30:06.096Z,70.70
2022-10-31T21:32:38.699Z,71.10
2022-10-31T21:35:11.295Z,70.96
2022-10-31T21:37:45.171Z,70.14
2022-10-31T21:40:17.655Z,70.21
2022-10-31T21:42:50.031Z,70.05
2022-10-31T21:45:22.773Z,70.68
2022-10-31T21:47:55.274Z,70.64
2022-10-31T21:50:27.733Z,70.80
2022-10-31T21:53:21.518Z,70.45
2022-10-31T21:55:53.986Z,70.33
2022-10-31T21:58:26.524Z,71.02
2022-10-31T22:01:01.868Z,70.77
2022-10-31T22:03:36.055Z,70.53
2022-10-31T22:06:10.293Z,70.11
2022-10-31T22:08:44.357Z,70.88
2022-10-31T22:11:18.094Z,71.06
2022-10-31T22:13:50.912Z,71.17
2022-10-31T22:16:25.425Z,71.54
2022-10-31T22:18:59.733Z,72.45
2022-10-31T22:21:36.081Z,71.40
2022-10-31T22:24:11.067Z,71.40
2022-10-31T22:26:43.840Z,71.04
2022-10-31T22:29:18.514Z,71.56
2022-10-31T22:31:57.282Z,71.38
2022-10-31T22:34:32.114Z,72.06
2022-10-31T22:37:04.690Z,72.03
2022-10-31T22:39:38.615Z,71.77
2022-10-31T22:42:13.482Z,71.05
2022-10-31T22:44:45.855Z,71.36
2022-10-31T22:47:18.284Z,71.19
2022-10-31T22:49:50.789Z,71.27
2022-10-31T22:52:23.202Z,71.01
2022-10-31T22:54:59.209Z,70.84
2022-10-31T22:57:31.975Z,70.75
2022-10-31T23:00:06.052Z,70.33
2022-10-31T23:02:38.570Z,70.66
2022-10-31T23:05:11.248Z,70.40
2022-10-31T23:07:43.677Z,70.63
2022-10-31T23:10:17.740Z,71.36
2022-10-31T23:13:08.608Z,71.54
2022-10-31T23:15:41.038Z,70.71
2022-10-31T23:18:19.044Z,71.04
2022-10-31T23:20:56.677Z,71.48
2022-10-31T23:23:29.499Z,70.69
2022-10-31T23:26:22.581Z,71.45
2022-10-31T23:28:55.079Z,71.40
2022-10-31T23:31:27.566Z,71.16
2022-10-31T23:33:59.945Z,71.47
2022-10-31T23:36:32.445Z,71.26
2022-10-31T23:39:04.934Z,70.43
2022-10-31T23:41:38.943Z,70.92
2022-10-31T23:44:11.369Z,71.03
2022-10-31T23:46:43.836Z,70.41
2022-10-31T23:49:16.325Z,71.10
2022-10-31T23:51:48.935Z,70.76
2022-10-31T23:54:21.216Z,70.79
2022-10-31T23:56:55.246Z,70.89
2022-10-31T23:59:29.219Z,71.02
